createdAt,value
2023-03-19T00:01:06.392Z,5.49
2023-03-19T00:04:17.359Z,5.59
2023-03-19T00:07:25.668Z,5.41
2023-03-19T00:10:33.830Z,5.27
2023-03-19T00:13:42.023Z,5.23
2023-03-19T00:16:50.685Z,5.23
2023-03-19T00:20:00.222Z,5.03
2023-03-19T00:23:09.165Z,5.18
2023-03-19T00:26:17.333Z,5.32
2023-03-19T00:29:26.139Z,5.45
2023-03-19T00:32:35.639Z,5.34
2023-03-19T00:35:45.420Z,5.08
2023-03-19T00:38:54.116Z,4.89
2023-03-19T00:42:02.850Z,5.00
2023-03-19T00:45:13.173Z,5.06
2023-03-19T00:48:22.215Z,5.03
2023-03-19T00:51:31.703Z,5.14
2023-03-19T00:54:39.840Z,5.10
2023-03-19T00:57:49.256Z,4.95
2023-03-19T01:00:57.704Z,4.98
2023-03-19T01:04:06.316Z,4.82
2023-03-19T01:07:16.488Z,4.82
2023-03-19T01:10:26.078Z,4.69
2023-03-19T01:13:34.290Z,4.73
2023-03-19T01:16:42.508Z,4.83
2023-03-19T01:19:51.026Z,4.85
2023-03-19T01:23:01.521Z,4.83
2023-03-19T01:26:09.982Z,4.69
2023-03-19T01:29:19.099Z,4.69
2023-03-19T01:32:27.884Z,4.72
2023-03-19T01:35:54.910Z,4.58
2023-03-19T01:39:09.967Z,4.70
2023-03-19T01:42:18.867Z,4.76
2023-03-19T01:45:58.182Z,4.74
2023-03-19T01:49:25.289Z,4.69
2023-03-19T01:52:46.877Z,4.59
2023-03-19T01:56:13.636Z,4.62
2023-03-19T01:59:43.272Z,4.66
2023-03-19T02:03:13.947Z,4.68
2023-03-19T02:06:49.100Z,4.80
2023-03-19T02:09:58.831Z,4.64
2023-03-19T02:13:09.194Z,4.45
2023-03-19T02:16:18.173Z,4.40
2023-03-19T02:19:36.940Z,4.31
2023-03-19T02:22:57.754Z,4.22
2023-03-19T02:26:10.262Z,4.10
2023-03-19T02:29:18.971Z,3.94
2023-03-19T02:32:28.137Z,4.00
2023-03-19T02:35:39.007Z,4.09
2023-03-19T02:38:50.017Z,4.13
2023-03-19T02:42:02.164Z,4.04
2023-03-19T02:45:13.228Z,3.95
2023-03-19T02:48:21.824Z,4.01
2023-03-19T02:51:30.618Z,4.07
2023-03-19T02:54:38.979Z,4.05
2023-03-19T02:57:48.941Z,4.03
2023-03-19T03:00:57.401Z,4.00
2023-03-19T03:04:06.223Z,3.98
2023-03-19T03:07:14.425Z,3.98
2023-03-19T03:10:23.378Z,4.16
2023-03-19T03:13:33.444Z,3.88
2023-03-19T03:16:43.263Z,3.94
2023-03-19T03:19:52.099Z,4.08
2023-03-19T03:23:00.923Z,4.07
2023-03-19T03:26:09.161Z,3.93
2023-03-19T03:29:18.739Z,3.97
2023-03-19T03:32:27.492Z,4.18
2023-03-19T03:35:35.692Z,4.06
2023-03-19T03:38:44.558Z,4.11
2023-03-19T03:41:53.949Z,3.95
2023-03-19T03:45:03.657Z,3.80
2023-03-19T03:48:12.284Z,3.90
2023-03-19T03:51:22.157Z,3.86
2023-03-19T03:54:30.395Z,3.95
2023-03-19T03:57:38.609Z,3.95
2023-03-19T04:00:48.474Z,4.01
2023-03-19T04:03:56.898Z,4.02
2023-03-19T04:07:06.693Z,4.19
2023-03-19T04:10:25.892Z,4.21
2023-03-19T04:13:36.818Z,4.26
2023-03-19T04:16:48.300Z,4.23
2023-03-19T04:19:56.658Z,4.21
2023-03-19T04:23:04.804Z,4.31
2023-03-19T04:26:13.891Z,4.24
2023-03-19T04:29:23.667Z,4.30
2023-03-19T04:32:35.520Z,4.33
2023-03-19T04:35:43.798Z,4.38
2023-03-19T04:38:52.624Z,4.40
2023-03-19T04:42:01.778Z,4.42
2023-03-19T04:45:19.543Z,4.51
2023-03-19T04:48:29.081Z,4.53
2023-03-19T04:51:37.548Z,4.61
2023-03-19T04:54:45.753Z,4.56
2023-03-19T04:57:53.996Z,4.57
2023-03-19T05:01:07.948Z,4.66
2023-03-19T05:04:40.154Z,4.64
2023-03-19T05:07:52.140Z,4.68
2023-03-19T05:11:00.373Z,4.67
2023-03-19T05:14:14.384Z,4.64
2023-03-19T05:17:45.948Z,4.62
2023-03-19T05:21:04.885Z,4.84
2023-03-19T05:24:13.034Z,4.67
2023-03-19T05:27:21.984Z,4.83
2023-03-19T05:30:37.854Z,4.74
2023-03-19T05:33:50.637Z,4.78
2023-03-19T05:37:00.639Z,4.79
2023-03-19T05:40:12.339Z,4.80
2023-03-19T05:43:22.647Z,4.92
2023-03-19T05:46:32.063Z,5.12
2023-03-19T05:49:40.502Z,5.37
2023-03-19T05:52:50.066Z,5.58
2023-03-19T05:55:58.596Z,5.84
2023-03-19T05:59:08.974Z,6.17
2023-03-19T06:02:21.496Z,6.54
2023-03-19T06:05:32.923Z,6.79
2023-03-19T06:08:49.855Z,7.17
2023-03-19T06:12:06.322Z,7.33
2023-03-19T06:15:33.195Z,7.56
2023-03-19T06:18:47.215Z,7.62
2023-03-19T06:21:56.935Z,7.83
2023-03-19T06:25:07.700Z,7.96
2023-03-19T06:28:18.435Z,8.14
2023-03-19T06:31:27.591Z,8.24
2023-03-19T06:34:42.000Z,8.27
2023-03-19T06:37:50.842Z,8.37
2023-03-19T06:41:00.824Z,8.29
2023-03-19T06:44:09.137Z,8.36
2023-03-19T06:47:17.767Z,8.44
2023-03-19T06:50:27.258Z,8.48
2023-03-19T06:53:36.356Z,8.48
2023-03-19T06:56:46.198Z,8.63
2023-03-19T06:59:54.454Z,8.69
2023-03-19T07:03:02.583Z,8.76
2023-03-19T07:06:10.791Z,8.78
2023-03-19T07:09:18.971Z,8.87
2023-03-19T07:12:29.101Z,9.02
2023-03-19T07:15:37.308Z,9.17
2023-03-19T07:18:45.586Z,9.29
2023-03-19T07:21:54.033Z,9.35
2023-03-19T07:25:02.241Z,9.36
2023-03-19T07:28:11.755Z,9.43
2023-03-19T07:31:20.191Z,9.44
2023-03-19T07:34:28.459Z,9.41
2023-03-19T07:37:36.784Z,9.49
2023-03-19T07:40:54.955Z,9.47
2023-03-19T07:44:14.107Z,9.60
2023-03-19T07:47:28.892Z,9.50
2023-03-19T07:50:38.202Z,9.66
2023-03-19T07:53:46.684Z,9.81
2023-03-19T07:56:54.924Z,9.81
2023-03-19T08:00:05.258Z,9.88
2023-03-19T08:03:21.905Z,9.90
2023-03-19T08:06:30.650Z,10.00
2023-03-19T08:09:39.551Z,10.02
2023-03-19T08:12:49.008Z,10.21
2023-03-19T08:15:58.688Z,10.35
2023-03-19T08:19:06.915Z,10.41
2023-03-19T08:22:15.351Z,10.62
2023-03-19T08:25:23.784Z,10.91
2023-03-19T08:28:32.037Z,11.23
2023-03-19T08:31:42.661Z,11.39
2023-03-19T08:34:51.391Z,11.58
2023-03-19T08:37:59.967Z,11.46
2023-03-19T08:41:09.695Z,11.80
2023-03-19T08:44:17.843Z,12.08
2023-03-19T08:47:27.691Z,12.10
2023-03-19T08:50:36.414Z,12.11
2023-03-19T08:53:44.798Z,11.84
2023-03-19T08:56:52.982Z,11.57
2023-03-19T09:00:01.546Z,11.52
2023-03-19T09:03:11.403Z,11.46
2023-03-19T09:06:19.796Z,11.46
2023-03-19T09:09:28.342Z,11.63
2023-03-19T09:12:36.745Z,11.76
2023-03-19T09:15:44.995Z,11.99
2023-03-19T09:18:55.796Z,12.03
2023-03-19T09:22:06.874Z,12.16
2023-03-19T09:25:15.347Z,12.15
2023-03-19T09:28:24.122Z,11.98
2023-03-19T09:31:32.651Z,11.95
2023-03-19T09:34:42.281Z,12.15
2023-03-19T09:37:52.003Z,12.34
2023-03-19T09:41:11.341Z,12.53
2023-03-19T09:44:29.689Z,12.92
2023-03-19T09:47:39.597Z,13.45
2023-03-19T09:50:51.560Z,13.53
2023-03-19T09:54:05.166Z,13.75
2023-03-19T09:57:15.101Z,13.56
2023-03-19T10:00:27.210Z,13.65
2023-03-19T10:03:51.378Z,13.30
2023-03-19T10:07:16.360Z,13.29
2023-03-19T10:10:44.923Z,13.31
2023-03-19T10:14:24.133Z,13.70
2023-03-19T10:17:38.664Z,13.88
2023-03-19T10:20:58.978Z,13.85
2023-03-19T10:24:16.546Z,13.59
2023-03-19T10:27:29.687Z,13.80
2023-03-19T10:30:38.673Z,13.98
2023-03-19T10:33:58.104Z,14.21
2023-03-19T10:37:15.253Z,14.40
2023-03-19T10:40:38.227Z,14.65
2023-03-19T10:43:54.215Z,14.38
2023-03-19T10:47:14.268Z,13.85
2023-03-19T10:50:31.132Z,12.53
2023-03-19T10:53:41.282Z,12.51
2023-03-19T10:56:55.689Z,13.61
2023-03-19T11:00:09.245Z,13.86
2023-03-19T11:03:33.020Z,13.91
2023-03-19T11:06:41.643Z,13.72
2023-03-19T11:09:52.272Z,13.16
2023-03-19T11:13:07.265Z,13.64
2023-03-19T11:16:16.172Z,13.41
2023-03-19T11:19:29.560Z,13.90
2023-03-19T11:22:40.427Z,14.04
2023-03-19T11:25:52.381Z,13.18
2023-03-19T11:29:05.974Z,12.36
2023-03-19T11:32:45.750Z,12.67
2023-03-19T11:36:09.894Z,13.13
2023-03-19T11:39:30.438Z,13.07
2023-03-19T11:43:06.856Z,13.94
2023-03-19T11:46:38.947Z,14.45
2023-03-19T11:50:05.774Z,15.09
2023-03-19T11:56:50.067Z,14.23
2023-03-19T12:00:23.098Z,13.62
2023-03-19T12:04:22.142Z,13.07
2023-03-19T12:07:41.168Z,13.57
2023-03-19T12:11:09.464Z,13.66
2023-03-19T12:14:46.611Z,14.09
2023-03-19T12:18:11.929Z,14.88
2023-03-19T12:21:29.284Z,14.23
2023-03-19T12:25:05.424Z,13.79
2023-03-19T12:28:23.991Z,14.71
2023-03-19T12:31:51.973Z,15.19
2023-03-19T12:35:09.922Z,15.82
2023-03-19T12:38:27.972Z,14.81
2023-03-19T12:41:44.121Z,13.97
2023-03-19T12:44:56.863Z,13.40
2023-03-19T12:48:11.358Z,13.04
2023-03-19T12:51:28.269Z,13.02
2023-03-19T12:54:42.722Z,13.09
2023-03-19T12:57:58.636Z,13.04
2023-03-19T13:01:14.630Z,13.31
2023-03-19T13:04:28.151Z,13.09
2023-03-19T13:07:51.518Z,13.14
2023-03-19T13:11:00.876Z,13.66
2023-03-19T13:14:22.960Z,14.17
2023-03-19T13:17:43.461Z,14.14
2023-03-19T13:21:11.609Z,14.05
2023-03-19T13:24:28.184Z,14.34
2023-03-19T13:27:37.681Z,14.60
2023-03-19T13:31:02.598Z,15.10
2023-03-19T13:34:28.370Z,15.31
2023-03-19T13:37:37.555Z,15.14
2023-03-19T13:40:50.691Z,15.63
2023-03-19T13:43:59.572Z,15.74
2023-03-19T13:47:42.459Z,14.59
2023-03-19T13:51:00.940Z,14.33
2023-03-19T13:54:20.051Z,14.21
2023-03-19T13:57:37.588Z,14.89
2023-03-19T14:00:59.803Z,14.26
2023-03-19T14:04:21.899Z,14.16
2023-03-19T14:07:37.632Z,13.83
2023-03-19T14:10:51.311Z,14.05
2023-03-19T14:14:05.496Z,13.67
2023-03-19T14:17:17.827Z,13.88
2023-03-19T14:20:37.240Z,13.90
2023-03-19T14:23:57.711Z,13.81
2023-03-19T14:27:18.166Z,13.68
2023-03-19T14:30:33.829Z,13.44
2023-03-19T14:33:49.063Z,13.56
2023-03-19T14:37:05.792Z,13.66
2023-03-19T14:40:20.314Z,14.05
2023-03-19T14:43:57.807Z,14.51
2023-03-19T14:47:34.253Z,15.21
2023-03-19T14:51:40.680Z,15.26
2023-03-19T14:54:56.931Z,15.49
2023-03-19T14:58:06.315Z,15.50
2023-03-19T15:01:15.014Z,15.60
2023-03-19T15:04:27.322Z,15.48
2023-03-19T15:07:39.766Z,15.25
2023-03-19T15:11:02.521Z,15.53
2023-03-19T15:14:43.507Z,15.52
2023-03-19T15:18:04.048Z,15.47
2023-03-19T15:21:13.500Z,15.43
2023-03-19T15:24:22.383Z,15.19
2023-03-19T15:27:32.508Z,15.04
2023-03-19T15:30:53.464Z,15.24
2023-03-19T15:34:22.335Z,15.34
2023-03-19T15:37:34.396Z,15.16
2023-03-19T15:40:43.454Z,15.16
2023-03-19T15:43:53.847Z,14.95
2023-03-19T15:47:09.730Z,14.87
2023-03-19T15:50:23.351Z,14.73
2023-03-19T15:53:36.694Z,14.72
2023-03-19T15:56:45.189Z,14.79
2023-03-19T15:59:57.345Z,14.83
2023-03-19T16:03:08.124Z,14.69
2023-03-19T16:06:26.939Z,14.63
2023-03-19T16:09:36.516Z,14.55
2023-03-19T16:12:51.158Z,14.42
2023-03-19T16:16:09.084Z,14.39
2023-03-19T16:19:36.750Z,14.46
2023-03-19T16:22:54.806Z,14.29
2023-03-19T16:26:21.829Z,14.13
2023-03-19T16:29:38.875Z,13.99
2023-03-19T16:33:00.565Z,13.80
2023-03-19T16:36:14.218Z,13.64
2023-03-19T16:39:34.240Z,13.43
2023-03-19T16:42:44.064Z,13.15
2023-03-19T16:46:04.901Z,13.13
2023-03-19T16:49:14.626Z,13.03
2023-03-19T16:52:25.675Z,12.88
2023-03-19T16:55:36.702Z,12.85
2023-03-19T16:58:48.178Z,12.68
2023-03-19T17:01:57.023Z,12.51
2023-03-19T17:05:13.894Z,12.41
2023-03-19T17:08:23.236Z,12.24
2023-03-19T17:11:36.910Z,12.22
2023-03-19T17:14:45.680Z,11.93
2023-03-19T17:17:54.697Z,11.78
2023-03-19T17:21:11.120Z,11.63
2023-03-19T17:24:26.218Z,11.48
2023-03-19T17:27:34.857Z,11.30
2023-03-19T17:30:43.213Z,11.18
2023-03-19T17:33:52.935Z,11.06
2023-03-19T17:37:07.066Z,10.88
2023-03-19T17:40:21.435Z,10.84
2023-03-19T17:43:31.172Z,10.63
2023-03-19T17:46:43.718Z,10.51
2023-03-19T17:49:52.398Z,10.41
2023-03-19T17:53:02.246Z,10.30
2023-03-19T17:56:16.544Z,10.25
2023-03-19T17:59:25.364Z,10.14
2023-03-19T18:02:36.109Z,10.02
2023-03-19T18:05:44.997Z,9.91
2023-03-19T18:08:54.594Z,9.80
2023-03-19T18:12:02.984Z,9.68
2023-03-19T18:15:13.004Z,9.58
2023-03-19T18:18:23.749Z,9.44
2023-03-19T18:21:32.899Z,9.33
2023-03-19T18:24:42.980Z,9.18
2023-03-19T18:27:52.147Z,9.07
2023-03-19T18:31:01.524Z,8.92
2023-03-19T18:34:14.436Z,8.90
2023-03-19T18:37:23.047Z,8.77
2023-03-19T18:40:34.810Z,8.73
2023-03-19T18:43:43.125Z,8.58
2023-03-19T18:46:51.683Z,8.49
2023-03-19T18:50:00.421Z,8.43
2023-03-19T18:53:12.270Z,8.38
2023-03-19T18:56:27.013Z,8.07
2023-03-19T18:59:35.445Z,8.14
2023-03-19T19:02:45.306Z,8.19
2023-03-19T19:05:53.804Z,8.23
2023-03-19T19:09:03.501Z,8.28
2023-03-19T19:12:18.618Z,8.39
2023-03-19T19:15:32.370Z,8.32
2023-03-19T19:18:40.855Z,8.15
2023-03-19T19:21:49.276Z,8.05
2023-03-19T19:24:57.530Z,7.95
2023-03-19T19:28:19.520Z,7.84
2023-03-19T19:31:30.963Z,7.99
2023-03-19T19:34:39.347Z,8.10
2023-03-19T19:37:47.849Z,8.05
2023-03-19T19:41:00.348Z,8.13
2023-03-19T19:44:19.651Z,8.21
2023-03-19T19:47:29.021Z,8.18
2023-03-19T19:50:37.117Z,8.27
2023-03-19T19:53:46.347Z,8.24
2023-03-19T19:56:55.278Z,8.23
2023-03-19T20:00:08.181Z,8.24
2023-03-19T20:03:23.676Z,8.14
2023-03-19T20:06:31.987Z,8.10
2023-03-19T20:09:40.697Z,8.01
2023-03-19T20:12:54.671Z,7.98
2023-03-19T20:16:05.506Z,8.10
2023-03-19T20:19:20.173Z,8.28
2023-03-19T20:22:28.626Z,8.13
2023-03-19T20:25:37.842Z,8.10
2023-03-19T20:28:47.010Z,8.36
2023-03-19T20:31:58.283Z,8.33
2023-03-19T20:35:17.232Z,8.43
2023-03-19T20:38:27.189Z,8.42
2023-03-19T20:41:36.624Z,8.53
2023-03-19T20:44:45.991Z,8.68
2023-03-19T20:47:56.956Z,8.64
2023-03-19T20:51:06.177Z,8.78
2023-03-19T20:54:14.605Z,8.77
2023-03-19T20:57:30.782Z,8.89
2023-03-19T21:00:39.153Z,8.98
2023-03-19T21:03:49.060Z,9.11
2023-03-19T21:06:58.479Z,9.14
2023-03-19T21:10:31.322Z,9.12
2023-03-19T21:13:39.719Z,9.19
2023-03-19T21:16:48.125Z,9.05
2023-03-19T21:19:58.816Z,9.06
2023-03-19T21:23:17.307Z,9.21
2023-03-19T21:26:26.975Z,9.10
2023-03-19T21:29:35.613Z,9.20
2023-03-19T21:32:43.810Z,9.27
2023-03-19T21:35:55.313Z,9.29
2023-03-19T21:39:03.463Z,9.24
2023-03-19T21:42:18.808Z,9.24
2023-03-19T21:45:31.757Z,9.22
2023-03-19T21:48:41.058Z,9.21
2023-03-19T21:51:51.030Z,9.24
2023-03-19T21:54:59.261Z,9.21
2023-03-19T21:58:13.245Z,9.14
2023-03-19T22:01:25.059Z,9.19
2023-03-19T22:04:34.160Z,9.15
2023-03-19T22:07:44.136Z,9.14
2023-03-19T22:10:58.650Z,9.12
2023-03-19T22:14:14.056Z,9.15
2023-03-19T22:17:26.554Z,9.20
2023-03-19T22:20:35.178Z,9.18
2023-03-19T22:23:45.623Z,9.07
2023-03-19T22:26:58.872Z,9.11
2023-03-19T22:30:16.790Z,9.11
2023-03-19T22:33:28.334Z,9.13
2023-03-19T22:36:36.722Z,9.13
2023-03-19T22:39:46.597Z,9.10
2023-03-19T22:42:55.461Z,9.04
2023-03-19T22:46:09.139Z,8.96
2023-03-19T22:49:19.125Z,8.90
2023-03-19T22:52:29.107Z,8.91
2023-03-19T22:55:39.158Z,8.82
2023-03-19T22:58:48.717Z,8.83
2023-03-19T23:01:58.145Z,8.73
2023-03-19T23:05:28.969Z,8.77
2023-03-19T23:08:37.504Z,8.64
2023-03-19T23:11:49.426Z,8.68
2023-03-19T23:14:57.573Z,8.64
2023-03-19T23:18:16.149Z,8.62
2023-03-19T23:21:24.759Z,8.65
2023-03-19T23:24:34.106Z,8.62
2023-03-19T23:27:46.013Z,8.47
2023-03-19T23:30:54.987Z,8.32
2023-03-19T23:34:03.576Z,8.55
2023-03-19T23:37:12.310Z,8.42
2023-03-19T23:40:20.728Z,8.39
2023-03-19T23:43:30.990Z,8.43
2023-03-19T23:46:39.483Z,8.34
2023-03-19T23:49:47.947Z,8.43
2023-03-19T23:52:57.086Z,8.35
2023-03-19T23:56:15.879Z,8.39
2023-03-19T23:59:26.672Z,8.39
